createdAt,value
2023-07-01T00:00:41.219Z,3.40
2023-07-01T00:03:09.922Z,2.83
2023-07-01T00:05:36.557Z,3.40
2023-07-01T00:08:03.243Z,2.97
2023-07-01T00:10:29.924Z,3.22
2023-07-01T00:12:56.597Z,2.92
2023-07-01T00:15:23.231Z,2.85
2023-07-01T00:17:50.085Z,3.33
2023-07-01T00:20:17.338Z,3.10
2023-07-01T00:22:44.022Z,2.97
2023-07-01T00:25:10.678Z,3.05
2023-07-01T00:27:37.327Z,3.00
2023-07-01T00:30:04.243Z,2.85
2023-07-01T00:32:31.056Z,2.83
2023-07-01T00:34:57.818Z,2.70
2023-07-01T00:37:24.496Z,3.17
2023-07-01T00:39:51.171Z,2.97
2023-07-01T00:42:17.834Z,2.63
2023-07-01T00:44:44.493Z,2.72
2023-07-01T00:47:11.808Z,2.55
2023-07-01T00:49:39.391Z,2.70
2023-07-01T00:52:07.553Z,2.80
2023-07-01T00:54:35.962Z,2.63
2023-07-01T00:57:05.240Z,2.90
2023-07-01T00:59:33.251Z,2.70
2023-07-01T01:02:07.705Z,2.88
2023-07-01T01:04:45.671Z,2.55
2023-07-01T01:07:24.703Z,2.70
2023-07-01T01:09:58.734Z,2.70
2023-07-01T01:12:28.134Z,2.83
2023-07-01T01:14:55.629Z,2.35
2023-07-01T01:17:26.021Z,2.50
2023-07-01T01:19:58.115Z,2.55
2023-07-01T01:22:37.425Z,2.35
2023-07-01T01:25:11.863Z,2.53
2023-07-01T01:27:41.856Z,2.60
2023-07-01T01:30:10.383Z,2.70
2023-07-01T01:32:37.235Z,2.05
2023-07-01T01:35:04.607Z,2.60
2023-07-01T01:38:07.509Z,2.20
2023-07-01T01:40:37.241Z,2.58
2023-07-01T01:43:21.867Z,2.20
2023-07-01T01:45:49.048Z,2.30
2023-07-01T01:48:16.197Z,2.17
2023-07-01T01:50:46.015Z,2.30
2023-07-01T01:53:12.937Z,2.45
2023-07-01T01:55:39.685Z,2.50
2023-07-01T01:58:06.419Z,2.20
2023-07-01T02:00:35.124Z,2.17
2023-07-01T02:03:02.897Z,2.20
2023-07-01T02:05:29.823Z,2.17
2023-07-01T02:07:56.889Z,2.55
2023-07-01T02:10:23.612Z,2.35
2023-07-01T02:12:50.453Z,2.55
2023-07-01T02:15:17.113Z,2.53
2023-07-01T02:17:44.515Z,2.10
2023-07-01T02:20:12.958Z,2.15
2023-07-01T02:22:39.654Z,2.17
2023-07-01T02:25:06.779Z,2.30
2023-07-01T02:27:33.454Z,2.30
2023-07-01T02:30:00.913Z,2.20
2023-07-01T02:32:27.587Z,2.20
2023-07-01T02:34:54.303Z,2.25
2023-07-01T02:37:20.947Z,2.58
2023-07-01T02:39:48.244Z,2.30
2023-07-01T02:42:20.767Z,2.47
2023-07-01T02:44:48.102Z,2.10
2023-07-01T02:47:15.965Z,2.00
2023-07-01T02:49:43.194Z,2.25
2023-07-01T02:52:11.409Z,2.17
2023-07-01T02:54:41.716Z,2.30
2023-07-01T02:57:09.567Z,2.15
2023-07-01T02:59:36.810Z,2.65
2023-07-01T03:02:07.320Z,2.00
2023-07-01T03:04:34.514Z,2.08
2023-07-01T03:07:01.365Z,2.00
2023-07-01T03:09:28.760Z,2.17
2023-07-01T03:11:55.616Z,2.17
2023-07-01T03:14:22.588Z,2.10
2023-07-01T03:16:51.087Z,2.10
2023-07-01T03:19:18.103Z,2.20
2023-07-01T03:21:46.650Z,1.85
2023-07-01T03:24:14.016Z,2.25
2023-07-01T03:26:40.697Z,1.85
2023-07-01T03:29:07.403Z,2.08
2023-07-01T03:31:34.432Z,1.98
2023-07-01T03:34:01.336Z,2.38
2023-07-01T03:36:28.077Z,1.98
2023-07-01T03:38:56.814Z,2.05
2023-07-01T03:41:23.419Z,2.13
2023-07-01T03:43:50.033Z,1.88
2023-07-01T03:46:18.004Z,1.67
2023-07-01T03:48:44.700Z,2.25
2023-07-01T03:51:11.453Z,1.90
2023-07-01T03:53:38.213Z,1.90
2023-07-01T03:56:05.168Z,1.70
2023-07-01T03:58:31.800Z,1.88
2023-07-01T04:00:58.594Z,1.80
2023-07-01T04:03:25.370Z,1.85
2023-07-01T04:05:53.016Z,1.73
2023-07-01T04:08:19.751Z,1.88
2023-07-01T04:10:46.595Z,2.05
2023-07-01T04:13:13.961Z,2.60
2023-07-01T04:15:40.584Z,2.13
2023-07-01T04:18:07.478Z,1.98
2023-07-01T04:20:34.173Z,2.25
2023-07-01T04:23:03.079Z,2.15
2023-07-01T04:25:30.406Z,2.00
2023-07-01T04:27:57.409Z,2.03
2023-07-01T04:30:24.517Z,2.08
2023-07-01T04:32:51.255Z,2.05
2023-07-01T04:35:18.023Z,2.00
2023-07-01T04:37:44.748Z,2.15
2023-07-01T04:40:13.669Z,2.40
2023-07-01T04:42:50.616Z,2.40
2023-07-01T04:45:19.646Z,2.35
2023-07-01T04:47:47.175Z,2.03
2023-07-01T04:50:14.604Z,1.70
2023-07-01T04:52:41.516Z,2.20
2023-07-01T04:55:08.172Z,2.53
2023-07-01T04:57:34.808Z,2.20
2023-07-01T05:00:03.939Z,2.40
2023-07-01T05:02:30.790Z,1.80
2023-07-01T05:04:57.528Z,2.35
2023-07-01T05:07:24.236Z,2.33
2023-07-01T05:09:50.864Z,2.00
2023-07-01T05:12:17.489Z,2.45
2023-07-01T05:14:44.222Z,2.28
2023-07-01T05:17:11.122Z,2.10
2023-07-01T05:19:37.750Z,1.92
2023-07-01T05:22:04.560Z,2.20
2023-07-01T05:24:31.206Z,1.92
2023-07-01T05:26:58.291Z,2.08
2023-07-01T05:29:26.215Z,2.13
2023-07-01T05:31:53.358Z,2.17
2023-07-01T05:34:20.082Z,2.30
2023-07-01T05:36:46.728Z,2.30
2023-07-01T05:39:13.714Z,2.17
2023-07-01T05:41:41.441Z,2.05
2023-07-01T05:44:08.573Z,2.10
2023-07-01T05:46:35.536Z,2.33
2023-07-01T05:49:02.254Z,2.42
2023-07-01T05:51:28.909Z,1.95
2023-07-01T05:53:56.434Z,2.10
2023-07-01T05:56:23.061Z,2.50
2023-07-01T05:58:49.870Z,2.42
2023-07-01T06:01:16.613Z,2.25
2023-07-01T06:03:43.493Z,2.15
2023-07-01T06:06:10.187Z,2.22
2023-07-01T06:08:36.790Z,2.25
2023-07-01T06:11:03.625Z,2.83
2023-07-01T06:13:30.299Z,1.88
2023-07-01T06:15:56.975Z,2.10
2023-07-01T06:18:23.750Z,2.28
2023-07-01T06:20:50.429Z,2.15
2023-07-01T06:23:18.356Z,2.42
2023-07-01T06:25:45.130Z,2.10
2023-07-01T06:28:11.844Z,2.20
2023-07-01T06:30:38.597Z,2.17
2023-07-01T06:33:08.197Z,2.55
2023-07-01T06:35:35.112Z,2.10
2023-07-01T06:38:01.971Z,2.05
2023-07-01T06:40:30.766Z,2.40
2023-07-01T06:42:57.402Z,2.47
2023-07-01T06:45:24.026Z,2.13
2023-07-01T06:47:50.786Z,2.10
2023-07-01T06:50:17.610Z,1.95
2023-07-01T06:52:45.143Z,2.40
2023-07-01T06:55:14.672Z,2.65
2023-07-01T06:57:42.103Z,2.72
2023-07-01T07:00:10.922Z,2.05
2023-07-01T07:02:37.834Z,2.15
2023-07-01T07:05:06.016Z,2.30
2023-07-01T07:07:33.512Z,2.33
2023-07-01T07:10:00.263Z,2.67
2023-07-01T07:12:27.380Z,2.45
2023-07-01T07:14:54.071Z,2.22
2023-07-01T07:17:20.759Z,2.50
2023-07-01T07:19:47.919Z,2.67
2023-07-01T07:22:14.747Z,2.72
2023-07-01T07:24:41.432Z,3.15
2023-07-01T07:27:08.112Z,3.10
2023-07-01T07:29:34.760Z,2.97
2023-07-01T07:32:03.842Z,3.72
2023-07-01T07:34:30.480Z,3.42
2023-07-01T07:36:58.168Z,3.00
2023-07-01T07:39:24.821Z,3.33
2023-07-01T07:41:51.494Z,2.20
2023-07-01T07:44:19.203Z,2.58
2023-07-01T07:46:46.164Z,2.67
2023-07-01T07:49:12.855Z,2.70
2023-07-01T07:51:40.182Z,2.80
2023-07-01T07:54:06.808Z,2.83
2023-07-01T07:56:33.521Z,2.80
2023-07-01T07:59:00.164Z,3.05
2023-07-01T08:01:26.886Z,2.60
2023-07-01T08:03:53.803Z,2.72
2023-07-01T08:06:20.637Z,2.78
2023-07-01T08:08:47.270Z,2.50
2023-07-01T08:11:13.946Z,2.80
2023-07-01T08:13:40.649Z,2.92
2023-07-01T08:16:07.361Z,3.10
2023-07-01T08:18:34.107Z,2.70
2023-07-01T08:21:00.834Z,2.60
2023-07-01T08:23:27.470Z,2.40
2023-07-01T08:25:54.071Z,1.90
2023-07-01T08:28:20.775Z,2.38
2023-07-01T08:30:47.749Z,2.08
2023-07-01T08:33:15.152Z,2.20
2023-07-01T08:35:42.190Z,1.95
2023-07-01T08:38:08.831Z,2.00
2023-07-01T08:40:35.495Z,1.80
2023-07-01T08:43:03.643Z,2.00
2023-07-01T08:45:32.031Z,2.03
2023-07-01T08:48:01.954Z,1.95
2023-07-01T08:50:44.049Z,2.00
2023-07-01T08:53:11.367Z,1.80
2023-07-01T08:55:38.955Z,1.80
2023-07-01T08:58:05.694Z,1.70
2023-07-01T09:00:32.821Z,2.20
2023-07-01T09:03:00.127Z,1.98
2023-07-01T09:05:26.863Z,2.10
2023-07-01T09:07:53.594Z,2.30
2023-07-01T09:10:21.053Z,1.90
2023-07-01T09:12:47.776Z,1.67
2023-07-01T09:15:14.503Z,2.28
2023-07-01T09:17:42.598Z,1.80
2023-07-01T09:20:14.065Z,1.40
2023-07-01T09:22:42.846Z,2.08
2023-07-01T09:25:09.719Z,1.90
2023-07-01T09:27:47.591Z,1.77
2023-07-01T09:30:24.240Z,1.92
2023-07-01T09:32:52.346Z,1.50
2023-07-01T09:35:19.144Z,1.70
2023-07-01T09:37:45.745Z,1.98
2023-07-01T09:40:27.320Z,1.42
2023-07-01T09:43:14.357Z,1.42
2023-07-01T09:46:00.876Z,1.67
2023-07-01T09:48:27.819Z,1.80
2023-07-01T09:51:04.657Z,1.75
2023-07-01T09:53:34.066Z,1.40
2023-07-01T09:56:05.083Z,1.58
2023-07-01T09:58:35.241Z,2.10
2023-07-01T10:01:02.049Z,1.70
2023-07-01T10:03:29.071Z,1.50
2023-07-01T10:05:55.865Z,1.50
2023-07-01T10:08:22.975Z,1.60
2023-07-01T10:11:16.880Z,1.98
2023-07-01T10:13:51.457Z,1.75
2023-07-01T10:16:18.712Z,1.95
2023-07-01T10:18:52.796Z,1.50
2023-07-01T10:21:25.625Z,1.52
2023-07-01T10:23:52.927Z,1.75
2023-07-01T10:26:48.363Z,2.20
2023-07-01T10:29:30.456Z,1.50
2023-07-01T10:32:09.228Z,1.63
2023-07-01T10:35:04.025Z,1.40
2023-07-01T10:37:32.813Z,1.58
2023-07-01T10:40:09.020Z,1.75
2023-07-01T10:42:37.595Z,1.42
2023-07-01T10:45:13.377Z,1.40
2023-07-01T10:47:44.502Z,1.77
2023-07-01T10:50:12.782Z,1.17
2023-07-01T10:52:57.889Z,1.65
2023-07-01T10:55:47.032Z,1.60
2023-07-01T10:58:17.675Z,1.60
2023-07-01T11:00:44.431Z,1.52
2023-07-01T11:03:33.619Z,1.50
2023-07-01T11:06:08.201Z,1.73
2023-07-01T11:08:44.631Z,1.55
2023-07-01T11:11:11.724Z,1.60
2023-07-01T11:13:38.459Z,1.70
2023-07-01T11:16:10.291Z,1.90
2023-07-01T11:18:48.552Z,1.52
2023-07-01T11:21:19.289Z,1.77
2023-07-01T11:23:56.643Z,1.60
2023-07-01T11:26:25.621Z,1.80
2023-07-01T11:28:52.477Z,1.60
2023-07-01T11:31:26.838Z,2.08
2023-07-01T11:33:54.925Z,1.30
2023-07-01T11:36:43.552Z,1.60
2023-07-01T11:39:14.861Z,1.80
2023-07-01T11:41:55.510Z,1.98
2023-07-01T11:44:25.466Z,1.40
2023-07-01T11:46:53.468Z,1.90
2023-07-01T11:49:30.163Z,1.48
2023-07-01T11:52:01.020Z,1.17
2023-07-01T11:54:38.631Z,1.80
2023-07-01T11:57:15.936Z,1.42
2023-07-01T11:59:45.441Z,1.45
2023-07-01T12:02:12.613Z,1.50
2023-07-01T12:04:39.454Z,1.23
2023-07-01T12:07:24.366Z,1.10
2023-07-01T12:09:51.351Z,1.20
2023-07-01T12:12:24.356Z,1.17
2023-07-01T12:15:08.483Z,1.40
2023-07-01T12:17:36.332Z,0.90
2023-07-01T12:20:06.151Z,1.10
2023-07-01T12:22:32.837Z,1.10
2023-07-01T12:25:03.002Z,1.20
2023-07-01T12:27:30.831Z,1.20
2023-07-01T12:29:57.937Z,0.93
2023-07-01T12:32:25.597Z,1.02
2023-07-01T12:34:53.222Z,1.00
2023-07-01T12:37:20.914Z,0.98
2023-07-01T12:39:49.351Z,1.27
2023-07-01T12:42:16.685Z,1.17
2023-07-01T12:44:46.285Z,1.10
2023-07-01T12:47:13.161Z,0.90
2023-07-01T12:49:40.908Z,0.90
2023-07-01T12:52:07.892Z,1.00
2023-07-01T12:54:34.558Z,1.10
2023-07-01T12:57:01.274Z,0.90
2023-07-01T12:59:27.878Z,1.00
2023-07-01T13:01:55.249Z,0.90
2023-07-01T13:04:22.048Z,1.13
2023-07-01T13:06:48.932Z,1.10
2023-07-01T13:09:19.427Z,1.02
2023-07-01T13:11:47.090Z,1.00
2023-07-01T13:14:15.080Z,0.90
2023-07-01T13:16:43.430Z,1.20
2023-07-01T13:19:14.912Z,1.30
2023-07-01T13:21:47.948Z,1.02
2023-07-01T13:24:16.551Z,1.20
2023-07-01T13:26:44.828Z,1.08
2023-07-01T13:29:18.901Z,1.48
2023-07-01T13:31:47.428Z,1.40
2023-07-01T13:34:14.327Z,1.50
2023-07-01T13:36:44.265Z,1.38
2023-07-01T13:39:14.491Z,1.70
2023-07-01T13:41:41.163Z,1.35
2023-07-01T13:44:20.936Z,1.25
2023-07-01T13:46:48.927Z,1.42
2023-07-01T13:49:24.894Z,1.67
2023-07-01T13:51:52.420Z,2.10
2023-07-01T13:54:23.325Z,2.25
2023-07-01T13:56:54.184Z,1.63
2023-07-01T13:59:22.166Z,1.40
2023-07-01T14:02:11.406Z,1.60
2023-07-01T14:04:38.289Z,1.30
2023-07-01T14:07:06.584Z,1.17
2023-07-01T14:09:38.693Z,1.35
2023-07-01T14:12:05.817Z,1.17
2023-07-01T14:14:34.069Z,1.27
2023-07-01T14:17:02.092Z,1.20
2023-07-01T14:19:29.358Z,1.13
2023-07-01T14:21:57.061Z,1.38
2023-07-01T14:24:29.814Z,1.13
2023-07-01T14:27:00.395Z,1.30
2023-07-01T14:29:28.652Z,1.30
2023-07-01T14:31:56.962Z,1.10
2023-07-01T14:34:36.516Z,1.40
2023-07-01T14:37:04.150Z,1.30
2023-07-01T14:39:45.019Z,1.20
2023-07-01T14:42:23.651Z,1.05
2023-07-01T14:44:53.272Z,1.13
2023-07-01T14:47:19.990Z,0.93
2023-07-01T14:49:46.709Z,1.13
2023-07-01T14:52:13.375Z,1.23
2023-07-01T14:54:40.117Z,1.50
2023-07-01T14:57:06.837Z,1.20
2023-07-01T14:59:33.589Z,1.88
2023-07-01T15:02:00.617Z,1.73
2023-07-01T15:04:27.600Z,1.65
2023-07-01T15:06:55.671Z,1.55
2023-07-01T15:09:22.809Z,1.60
2023-07-01T15:11:49.448Z,1.50
2023-07-01T15:14:16.323Z,1.60
2023-07-01T15:16:43.059Z,1.33
2023-07-01T15:19:09.784Z,1.40
2023-07-01T15:21:36.599Z,1.50
2023-07-01T15:24:06.291Z,1.48
2023-07-01T15:26:33.224Z,1.67
2023-07-01T15:29:02.631Z,1.27
2023-07-01T15:31:29.420Z,1.35
2023-07-01T15:33:56.096Z,1.58
2023-07-01T15:36:22.744Z,1.33
2023-07-01T15:38:49.366Z,1.30
2023-07-01T15:41:16.203Z,1.45
2023-07-01T15:43:43.012Z,1.45
2023-07-01T15:46:09.955Z,1.50
2023-07-01T15:48:37.153Z,1.40
2023-07-01T15:51:03.916Z,1.13
2023-07-01T15:53:30.581Z,1.25
2023-07-01T15:55:57.676Z,1.60
2023-07-01T15:58:26.090Z,0.98
2023-07-01T16:00:52.882Z,1.02
2023-07-01T16:03:20.455Z,1.35
2023-07-01T16:05:47.963Z,1.50
2023-07-01T16:08:15.722Z,1.23
2023-07-01T16:10:46.449Z,1.25
2023-07-01T16:13:32.888Z,1.48
2023-07-01T16:16:01.185Z,1.60
2023-07-01T16:18:33.855Z,1.80
2023-07-01T16:21:06.998Z,1.60
2023-07-01T16:23:36.398Z,1.50
2023-07-01T16:26:08.242Z,1.40
2023-07-01T16:28:47.838Z,1.20
2023-07-01T16:31:20.484Z,1.35
2023-07-01T16:33:47.340Z,1.10
2023-07-01T16:36:21.234Z,1.30
2023-07-01T16:38:49.498Z,1.20
2023-07-01T16:41:17.238Z,1.20
2023-07-01T16:43:46.264Z,1.50
2023-07-01T16:46:13.295Z,1.40
2023-07-01T16:48:49.890Z,1.58
2023-07-01T16:51:16.766Z,1.10
2023-07-01T16:53:45.045Z,1.40
2023-07-01T16:56:16.361Z,1.30
2023-07-01T16:58:47.495Z,1.50
2023-07-01T17:01:36.093Z,1.35
2023-07-01T17:04:03.296Z,1.50
2023-07-01T17:06:32.837Z,1.80
2023-07-01T17:08:59.605Z,1.60
2023-07-01T17:12:01.489Z,1.67
2023-07-01T17:14:45.188Z,1.60
2023-07-01T17:17:30.123Z,2.00
2023-07-01T17:19:57.145Z,1.77
2023-07-01T17:22:24.509Z,1.73
2023-07-01T17:24:51.132Z,1.95
2023-07-01T17:27:17.845Z,1.95
2023-07-01T17:29:44.550Z,1.90
2023-07-01T17:32:11.228Z,1.90
2023-07-01T17:34:49.891Z,1.88
2023-07-01T17:37:16.642Z,2.03
2023-07-01T17:39:43.373Z,1.70
2023-07-01T17:42:10.046Z,1.83
2023-07-01T17:44:44.802Z,1.88
2023-07-01T17:47:11.810Z,2.10
2023-07-01T17:49:38.507Z,2.03
2023-07-01T17:52:05.493Z,2.28
2023-07-01T17:54:32.208Z,1.90
2023-07-01T17:56:58.838Z,2.08
2023-07-01T17:59:25.507Z,1.88
2023-07-01T18:01:52.146Z,2.70
2023-07-01T18:04:18.910Z,2.40
2023-07-01T18:06:45.728Z,2.20
2023-07-01T18:09:12.493Z,2.47
2023-07-01T18:11:39.138Z,2.70
2023-07-01T18:14:05.795Z,2.30
2023-07-01T18:16:32.577Z,2.55
2023-07-01T18:18:59.277Z,2.50
2023-07-01T18:21:25.958Z,2.70
2023-07-01T18:23:52.866Z,2.85
2023-07-01T18:26:20.363Z,2.80
2023-07-01T18:28:48.030Z,2.70
2023-07-01T18:31:15.465Z,2.80
2023-07-01T18:33:42.136Z,2.80
2023-07-01T18:36:08.786Z,3.45
2023-07-01T18:38:35.434Z,3.22
2023-07-01T18:41:02.318Z,3.00
2023-07-01T18:43:38.959Z,3.00
2023-07-01T18:46:06.465Z,2.60
2023-07-01T18:48:33.375Z,3.22
2023-07-01T18:51:00.264Z,3.33
2023-07-01T18:53:27.351Z,3.38
2023-07-01T18:55:54.162Z,3.35
2023-07-01T18:58:21.842Z,3.35
2023-07-01T19:00:49.736Z,3.97
2023-07-01T19:03:16.943Z,4.10
2023-07-01T19:05:44.150Z,3.38
2023-07-01T19:08:13.731Z,4.07
2023-07-01T19:10:40.657Z,3.83
2023-07-01T19:13:08.932Z,3.15
2023-07-01T19:15:35.902Z,3.67
2023-07-01T19:18:05.976Z,3.92
2023-07-01T19:20:53.227Z,4.07
2023-07-01T19:23:20.794Z,4.03
2023-07-01T19:25:49.053Z,3.88
2023-07-01T19:28:21.293Z,3.95
2023-07-01T19:30:48.500Z,3.55
2023-07-01T19:33:21.274Z,3.50
2023-07-01T19:35:52.493Z,4.07
2023-07-01T19:38:20.822Z,4.03
2023-07-01T19:40:48.192Z,3.88
2023-07-01T19:43:16.571Z,4.38
2023-07-01T19:45:44.246Z,4.50
2023-07-01T19:48:11.574Z,4.45
2023-07-01T19:50:39.411Z,4.47
2023-07-01T19:53:06.267Z,4.20
2023-07-01T19:55:33.144Z,3.80
2023-07-01T19:57:59.980Z,3.80
2023-07-01T20:00:26.666Z,4.15
2023-07-01T20:02:53.350Z,4.30
2023-07-01T20:05:22.146Z,4.40
2023-07-01T20:07:48.946Z,3.85
2023-07-01T20:10:29.013Z,4.43
2023-07-01T20:12:57.795Z,4.20
2023-07-01T20:15:24.651Z,3.78
2023-07-01T20:17:51.489Z,4.85
2023-07-01T20:20:18.377Z,4.78
2023-07-01T20:22:45.044Z,5.38
2023-07-01T20:25:12.092Z,5.25
2023-07-01T20:27:38.948Z,4.75
2023-07-01T20:30:06.884Z,5.20
2023-07-01T20:32:33.577Z,4.82
2023-07-01T20:35:00.240Z,4.82
2023-07-01T20:37:26.843Z,4.65
2023-07-01T20:39:53.519Z,4.55
2023-07-01T20:42:20.358Z,4.80
2023-07-01T20:44:49.600Z,4.57
2023-07-01T20:47:17.327Z,4.63
2023-07-01T20:49:48.109Z,4.50
2023-07-01T20:52:16.242Z,4.32
2023-07-01T20:54:43.451Z,4.28
2023-07-01T20:57:10.264Z,4.80
2023-07-01T20:59:37.108Z,4.35
2023-07-01T21:02:04.095Z,5.13
2023-07-01T21:04:30.895Z,5.05
2023-07-01T21:06:57.634Z,4.45
2023-07-01T21:09:24.246Z,4.43
2023-07-01T21:11:50.910Z,5.00
2023-07-01T21:14:18.278Z,5.15
2023-07-01T21:16:46.402Z,5.75
2023-07-01T21:19:13.525Z,4.47
2023-07-01T21:21:40.222Z,4.88
2023-07-01T21:24:07.293Z,3.83
2023-07-01T21:26:35.670Z,3.25
2023-07-01T21:29:02.678Z,3.15
2023-07-01T21:31:30.448Z,3.15
2023-07-01T21:33:57.288Z,3.30
2023-07-01T21:36:24.008Z,3.40
2023-07-01T21:38:50.930Z,3.20
2023-07-01T21:41:18.848Z,3.42
2023-07-01T21:43:45.883Z,3.25
2023-07-01T21:46:13.264Z,2.67
2023-07-01T21:48:40.066Z,3.20
2023-07-01T21:51:11.153Z,3.10
2023-07-01T21:53:39.229Z,3.10
2023-07-01T21:56:08.474Z,3.05
2023-07-01T21:58:55.464Z,3.10
2023-07-01T22:01:27.413Z,3.30
2023-07-01T22:03:55.231Z,3.15
2023-07-01T22:06:23.332Z,3.30
2023-07-01T22:08:49.993Z,3.20
2023-07-01T22:11:16.813Z,3.10
2023-07-01T22:13:44.219Z,3.35
2023-07-01T22:16:11.592Z,3.10
2023-07-01T22:18:38.604Z,3.30
2023-07-01T22:21:06.125Z,3.35
2023-07-01T22:23:34.344Z,3.03
2023-07-01T22:26:01.135Z,3.25
2023-07-01T22:28:29.953Z,3.53
2023-07-01T22:30:59.733Z,3.53
2023-07-01T22:33:27.434Z,4.15
2023-07-01T22:35:55.009Z,3.60
2023-07-01T22:38:21.905Z,3.42
2023-07-01T22:40:48.753Z,4.40
2023-07-01T22:43:15.852Z,3.65
2023-07-01T22:45:43.132Z,4.40
2023-07-01T22:48:10.038Z,4.03
2023-07-01T22:50:36.704Z,4.18
2023-07-01T22:53:03.470Z,4.55
2023-07-01T22:55:30.137Z,4.93
2023-07-01T22:57:56.973Z,4.35
2023-07-01T23:00:23.832Z,4.30
2023-07-01T23:02:50.710Z,4.43
2023-07-01T23:05:17.575Z,4.43
2023-07-01T23:07:44.403Z,4.47
2023-07-01T23:10:11.079Z,3.95
2023-07-01T23:12:37.773Z,3.45
2023-07-01T23:15:05.144Z,3.65
2023-07-01T23:17:34.855Z,4.07
2023-07-01T23:20:05.979Z,6.88
2023-07-01T23:22:36.859Z,8.90
2023-07-01T23:25:06.502Z,9.15
2023-07-01T23:27:42.737Z,8.90
2023-07-01T23:30:15.176Z,8.35
2023-07-01T23:32:46.844Z,6.60
2023-07-01T23:35:14.138Z,7.25
2023-07-01T23:37:40.785Z,6.03
2023-07-01T23:40:08.512Z,6.30
2023-07-01T23:42:36.934Z,5.97
2023-07-01T23:45:07.822Z,5.03
2023-07-01T23:47:34.715Z,5.63
2023-07-01T23:50:01.583Z,5.40
2023-07-01T23:52:28.458Z,6.28
2023-07-01T23:54:55.150Z,5.88
2023-07-01T23:57:21.820Z,6.22
2023-07-01T23:59:49.349Z,5.03
